sensor_id;sensor_type;location;lat;lon;timestamp;pressure;altitude;pressure_sealevel;temperature;humidity
62849;BME280;48941;49.516;8.286;2023-05-02T00:02:04;100530.38;;;12.64;78.45
62849;BME280;48941;49.516;8.286;2023-05-02T00:04:32;100535.28;;;12.59;78.77
62849;BME280;48941;49.516;8.286;2023-05-02T00:07:00;100530.59;;;12.51;79.23
62849;BME280;48941;49.516;8.286;2023-05-02T00:09:28;100540.81;;;12.46;79.47
62849;BME280;48941;49.516;8.286;2023-05-02T00:11:56;100524.38;;;12.41;79.15
62849;BME280;48941;49.516;8.286;2023-05-02T00:14:25;100534.34;;;12.39;79.22
62849;BME280;48941;49.516;8.286;2023-05-02T00:16:52;100530.22;;;12.34;79.38
62849;BME280;48941;49.516;8.286;2023-05-02T00:19:21;100533.16;;;12.31;79.55
62849;BME280;48941;49.516;8.286;2023-05-02T00:21:48;100530.75;;;12.28;80.00
62849;BME280;48941;49.516;8.286;2023-05-02T00:24:17;100538.06;;;12.26;80.05
62849;BME280;48941;49.516;8.286;2023-05-02T00:26:45;100532.84;;;12.25;80.09
62849;BME280;48941;49.516;8.286;2023-05-02T00:29:12;100529.56;;;12.21;80.09
62849;BME280;48941;49.516;8.286;2023-05-02T00:31:42;100530.22;;;12.13;80.47
62849;BME280;48941;49.516;8.286;2023-05-02T00:34:10;100525.53;;;12.06;81.04
62849;BME280;48941;49.516;8.286;2023-05-02T00:36:38;100529.31;;;12.03;80.56
62849;BME280;48941;49.516;8.286;2023-05-02T00:39:05;100533.34;;;11.98;80.93
62849;BME280;48941;49.516;8.286;2023-05-02T00:41:33;100531.91;;;11.93;81.13
62849;BME280;48941;49.516;8.286;2023-05-02T00:44:01;100532.16;;;11.90;81.23
62849;BME280;48941;49.516;8.286;2023-05-02T00:46:29;100530.81;;;11.85;81.24
62849;BME280;48941;49.516;8.286;2023-05-02T00:48:59;100530.69;;;11.86;80.96
62849;BME280;48941;49.516;8.286;2023-05-02T00:51:27;100532.50;;;11.86;80.82
62849;BME280;48941;49.516;8.286;2023-05-02T00:53:55;100529.97;;;11.84;80.71
62849;BME280;48941;49.516;8.286;2023-05-02T00:56:24;100533.00;;;11.80;80.62
62849;BME280;48941;49.516;8.286;2023-05-02T00:58:51;100530.84;;;11.73;81.02
62849;BME280;48941;49.516;8.286;2023-05-02T01:01:28;100535.47;;;11.71;81.26
62849;BME280;48941;49.516;8.286;2023-05-02T01:04:10;100536.97;;;11.64;81.22
62849;BME280;48941;49.516;8.286;2023-05-02T01:06:49;100533.69;;;11.61;81.91
62849;BME280;48941;49.516;8.286;2023-05-02T01:09:28;100541.09;;;11.57;81.82
62849;BME280;48941;49.516;8.286;2023-05-02T01:12:03;100540.50;;;11.53;82.02
62849;BME280;48941;49.516;8.286;2023-05-02T01:14:35;100546.22;;;11.49;81.97
62849;BME280;48941;49.516;8.286;2023-05-02T01:17:10;100550.84;;;11.47;82.11
62849;BME280;48941;49.516;8.286;2023-05-02T01:19:42;100555.44;;;11.45;81.94
62849;BME280;48941;49.516;8.286;2023-05-02T01:22:12;100558.22;;;11.43;82.04
62849;BME280;48941;49.516;8.286;2023-05-02T01:24:48;100553.28;;;11.39;81.92
62849;BME280;48941;49.516;8.286;2023-05-02T01:27:27;100555.06;;;11.38;81.95
62849;BME280;48941;49.516;8.286;2023-05-02T01:29:59;100558.84;;;11.35;81.96
62849;BME280;48941;49.516;8.286;2023-05-02T01:32:30;100559.22;;;11.31;82.43
62849;BME280;48941;49.516;8.286;2023-05-02T01:35:00;100555.00;;;11.28;82.29
62849;BME280;48941;49.516;8.286;2023-05-02T01:37:29;100556.19;;;11.24;82.58
62849;BME280;48941;49.516;8.286;2023-05-02T01:39:59;100559.84;;;11.23;82.43
62849;BME280;48941;49.516;8.286;2023-05-02T01:42:29;100571.47;;;11.22;82.16
62849;BME280;48941;49.516;8.286;2023-05-02T01:45:00;100566.28;;;11.21;82.25
62849;BME280;48941;49.516;8.286;2023-05-02T01:47:31;100571.00;;;11.17;82.47
62849;BME280;48941;49.516;8.286;2023-05-02T01:50:00;100574.50;;;11.18;82.75
62849;BME280;48941;49.516;8.286;2023-05-02T01:52:29;100580.09;;;11.14;82.30
62849;BME280;48941;49.516;8.286;2023-05-02T01:54:58;100572.22;;;11.13;82.83
62849;BME280;48941;49.516;8.286;2023-05-02T01:57:27;100575.00;;;11.11;82.52
62849;BME280;48941;49.516;8.286;2023-05-02T01:59:55;100584.94;;;11.09;82.54
62849;BME280;48941;49.516;8.286;2023-05-02T02:02:26;100589.16;;;11.12;82.68
62849;BME280;48941;49.516;8.286;2023-05-02T02:04:56;100587.47;;;11.11;82.24
62849;BME280;48941;49.516;8.286;2023-05-02T02:07:24;100591.09;;;11.10;82.14
62849;BME280;48941;49.516;8.286;2023-05-02T02:09:52;100599.34;;;11.07;82.59
62849;BME280;48941;49.516;8.286;2023-05-02T02:12:24;100602.25;;;11.04;82.70
62849;BME280;48941;49.516;8.286;2023-05-02T02:14:55;100599.84;;;11.01;82.26
62849;BME280;48941;49.516;8.286;2023-05-02T02:17:31;100615.22;;;10.97;82.45
62849;BME280;48941;49.516;8.286;2023-05-02T02:20:05;100615.69;;;10.91;83.34
62849;BME280;48941;49.516;8.286;2023-05-02T02:22:36;100617.53;;;10.90;82.99
62849;BME280;48941;49.516;8.286;2023-05-02T02:25:05;100616.81;;;10.88;83.75
62849;BME280;48941;49.516;8.286;2023-05-02T02:27:35;100622.13;;;10.88;83.49
62849;BME280;48941;49.516;8.286;2023-05-02T02:30:04;100626.59;;;10.88;83.70
62849;BME280;48941;49.516;8.286;2023-05-02T02:32:33;100618.69;;;10.86;83.63
62849;BME280;48941;49.516;8.286;2023-05-02T02:35:02;100628.53;;;10.86;84.04
62849;BME280;48941;49.516;8.286;2023-05-02T02:37:31;100626.94;;;10.83;84.22
62849;BME280;48941;49.516;8.286;2023-05-02T02:40:07;100621.63;;;10.83;83.92
62849;BME280;48941;49.516;8.286;2023-05-02T02:42:43;100633.13;;;10.84;84.15
62849;BME280;48941;49.516;8.286;2023-05-02T02:45:18;100630.47;;;10.84;83.75
62849;BME280;48941;49.516;8.286;2023-05-02T02:47:58;100625.97;;;10.84;84.14
62849;BME280;48941;49.516;8.286;2023-05-02T02:50:31;100639.44;;;10.83;83.60
62849;BME280;48941;49.516;8.286;2023-05-02T02:53:01;100639.66;;;10.80;84.12
62849;BME280;48941;49.516;8.286;2023-05-02T02:55:37;100637.97;;;10.79;83.81
62849;BME280;48941;49.516;8.286;2023-05-02T02:58:27;100640.88;;;10.75;84.34
62849;BME280;48941;49.516;8.286;2023-05-02T03:01:02;100644.63;;;10.73;83.82
62849;BME280;48941;49.516;8.286;2023-05-02T03:03:31;100650.06;;;10.71;84.41
62849;BME280;48941;49.516;8.286;2023-05-02T03:06:02;100648.59;;;10.67;84.12
62849;BME280;48941;49.516;8.286;2023-05-02T03:08:38;100652.34;;;10.65;84.35
62849;BME280;48941;49.516;8.286;2023-05-02T03:11:06;100657.06;;;10.61;84.78
62849;BME280;48941;49.516;8.286;2023-05-02T03:13:35;100661.53;;;10.61;84.85
62849;BME280;48941;49.516;8.286;2023-05-02T03:16:22;100661.66;;;10.59;84.60
62849;BME280;48941;49.516;8.286;2023-05-02T03:18:57;100659.94;;;10.58;84.67
62849;BME280;48941;49.516;8.286;2023-05-02T03:21:25;100664.44;;;10.57;84.69
62849;BME280;48941;49.516;8.286;2023-05-02T03:23:52;100666.25;;;10.57;84.46
62849;BME280;48941;49.516;8.286;2023-05-02T03:26:20;100667.09;;;10.57;84.72
62849;BME280;48941;49.516;8.286;2023-05-02T03:28:48;100669.75;;;10.57;84.71
62849;BME280;48941;49.516;8.286;2023-05-02T03:31:16;100674.34;;;10.55;84.20
62849;BME280;48941;49.516;8.286;2023-05-02T03:33:44;100672.53;;;10.56;84.28
62849;BME280;48941;49.516;8.286;2023-05-02T03:36:13;100673.72;;;10.52;84.66
62849;BME280;48941;49.516;8.286;2023-05-02T03:38:41;100680.03;;;10.51;84.81
62849;BME280;48941;49.516;8.286;2023-05-02T03:41:09;100681.09;;;10.48;84.98
62849;BME280;48941;49.516;8.286;2023-05-02T03:43:37;100680.34;;;10.46;84.96
62849;BME280;48941;49.516;8.286;2023-05-02T03:46:07;100683.16;;;10.45;85.58
62849;BME280;48941;49.516;8.286;2023-05-02T03:48:37;100692.09;;;10.44;86.04
62849;BME280;48941;49.516;8.286;2023-05-02T03:51:05;100693.66;;;10.46;86.29
62849;BME280;48941;49.516;8.286;2023-05-02T03:53:36;100691.75;;;10.48;86.68
62849;BME280;48941;49.516;8.286;2023-05-02T03:56:05;100703.28;;;10.49;86.92
62849;BME280;48941;49.516;8.286;2023-05-02T03:58:33;100692.84;;;10.46;87.52
62849;BME280;48941;49.516;8.286;2023-05-02T04:01:02;100707.00;;;10.46;87.40
62849;BME280;48941;49.516;8.286;2023-05-02T04:03:30;100708.69;;;10.47;87.85
62849;BME280;48941;49.516;8.286;2023-05-02T04:05:58;100715.50;;;10.51;87.81
62849;BME280;48941;49.516;8.286;2023-05-02T04:08:25;100718.25;;;10.50;87.88
62849;BME280;48941;49.516;8.286;2023-05-02T04:10:54;100717.44;;;10.49;87.98
62849;BME280;48941;49.516;8.286;2023-05-02T04:13:22;100716.34;;;10.52;87.76
62849;BME280;48941;49.516;8.286;2023-05-02T04:15:50;100725.19;;;10.52;87.99
62849;BME280;48941;49.516;8.286;2023-05-02T04:18:18;100726.03;;;10.53;87.98
62849;BME280;48941;49.516;8.286;2023-05-02T04:20:45;100725.06;;;10.54;88.00
62849;BME280;48941;49.516;8.286;2023-05-02T04:23:13;100733.69;;;10.57;88.14
62849;BME280;48941;49.516;8.286;2023-05-02T04:25:49;100737.91;;;10.60;88.17
62849;BME280;48941;49.516;8.286;2023-05-02T04:28:19;100740.25;;;10.65;88.57
62849;BME280;48941;49.516;8.286;2023-05-02T04:30:47;100744.59;;;10.66;88.60
62849;BME280;48941;49.516;8.286;2023-05-02T04:33:16;100747.06;;;10.69;88.46
62849;BME280;48941;49.516;8.286;2023-05-02T04:35:44;100749.47;;;10.72;88.83
62849;BME280;48941;49.516;8.286;2023-05-02T04:38:13;100758.72;;;10.79;88.69
62849;BME280;48941;49.516;8.286;2023-05-02T04:40:41;100761.03;;;10.84;88.69
62849;BME280;48941;49.516;8.286;2023-05-02T04:43:08;100758.88;;;10.89;88.76
62849;BME280;48941;49.516;8.286;2023-05-02T04:45:38;100771.72;;;10.95;88.35
62849;BME280;48941;49.516;8.286;2023-05-02T04:48:05;100769.69;;;10.99;88.73
62849;BME280;48941;49.516;8.286;2023-05-02T04:50:33;100773.81;;;11.03;88.73
62849;BME280;48941;49.516;8.286;2023-05-02T04:53:01;100775.28;;;11.07;88.75
62849;BME280;48941;49.516;8.286;2023-05-02T04:55:29;100783.91;;;11.10;88.53
62849;BME280;48941;49.516;8.286;2023-05-02T04:57:57;100780.16;;;11.13;88.60
62849;BME280;48941;49.516;8.286;2023-05-02T05:00:25;100784.16;;;11.19;88.40
62849;BME280;48941;49.516;8.286;2023-05-02T05:02:54;100790.22;;;11.21;87.79
62849;BME280;48941;49.516;8.286;2023-05-02T05:05:24;100789.88;;;11.25;88.08
62849;BME280;48941;49.516;8.286;2023-05-02T05:07:52;100796.66;;;11.29;87.96
62849;BME280;48941;49.516;8.286;2023-05-02T05:10:20;100796.31;;;11.34;87.78
62849;BME280;48941;49.516;8.286;2023-05-02T05:12:47;100796.81;;;11.39;87.15
62849;BME280;48941;49.516;8.286;2023-05-02T05:15:16;100809.88;;;11.42;87.14
62849;BME280;48941;49.516;8.286;2023-05-02T05:17:45;100813.19;;;11.46;86.54
62849;BME280;48941;49.516;8.286;2023-05-02T05:20:15;100823.75;;;11.47;87.00
62849;BME280;48941;49.516;8.286;2023-05-02T05:22:43;100825.19;;;11.51;86.74
62849;BME280;48941;49.516;8.286;2023-05-02T05:25:10;100825.81;;;11.55;87.14
62849;BME280;48941;49.516;8.286;2023-05-02T05:27:38;100839.53;;;11.62;86.87
62849;BME280;48941;49.516;8.286;2023-05-02T05:30:07;100841.25;;;11.63;87.49
62849;BME280;48941;49.516;8.286;2023-05-02T05:32:35;100849.59;;;11.69;87.40
62849;BME280;48941;49.516;8.286;2023-05-02T05:35:03;100846.72;;;11.72;87.90
62849;BME280;48941;49.516;8.286;2023-05-02T05:37:33;100855.31;;;11.76;88.01
62849;BME280;48941;49.516;8.286;2023-05-02T05:40:03;100856.03;;;11.78;87.76
62849;BME280;48941;49.516;8.286;2023-05-02T05:42:31;100857.88;;;11.77;87.83
62849;BME280;48941;49.516;8.286;2023-05-02T05:44:59;100854.97;;;11.81;87.54
62849;BME280;48941;49.516;8.286;2023-05-02T05:47:26;100861.03;;;11.83;87.05
62849;BME280;48941;49.516;8.286;2023-05-02T05:49:55;100866.13;;;11.86;86.66
62849;BME280;48941;49.516;8.286;2023-05-02T05:52:23;100862.72;;;11.84;86.85
62849;BME280;48941;49.516;8.286;2023-05-02T05:54:54;100867.09;;;11.85;86.53
62849;BME280;48941;49.516;8.286;2023-05-02T05:57:22;100864.31;;;11.86;86.46
62849;BME280;48941;49.516;8.286;2023-05-02T05:59:50;100867.50;;;11.91;86.48
62849;BME280;48941;49.516;8.286;2023-05-02T06:02:18;100878.16;;;11.91;87.11
62849;BME280;48941;49.516;8.286;2023-05-02T06:04:46;100875.75;;;12.00;86.73
62849;BME280;48941;49.516;8.286;2023-05-02T06:07:14;100880.50;;;12.07;85.86
62849;BME280;48941;49.516;8.286;2023-05-02T06:09:42;100889.34;;;12.19;85.38
62849;BME280;48941;49.516;8.286;2023-05-02T06:12:11;100888.75;;;12.27;84.25
62849;BME280;48941;49.516;8.286;2023-05-02T06:14:38;100894.81;;;12.29;83.33
62849;BME280;48941;49.516;8.286;2023-05-02T06:17:07;100902.34;;;12.35;83.35
62849;BME280;48941;49.516;8.286;2023-05-02T06:19:35;100897.34;;;12.42;83.38
62849;BME280;48941;49.516;8.286;2023-05-02T06:22:02;100896.63;;;12.51;83.54
62849;BME280;48941;49.516;8.286;2023-05-02T06:24:30;100900.88;;;12.53;83.30
62849;BME280;48941;49.516;8.286;2023-05-02T06:26:58;100900.03;;;12.53;83.03
62849;BME280;48941;49.516;8.286;2023-05-02T06:29:27;100908.66;;;12.57;83.51
62849;BME280;48941;49.516;8.286;2023-05-02T06:31:55;100913.38;;;12.64;82.55
62849;BME280;48941;49.516;8.286;2023-05-02T06:34:23;100913.97;;;12.68;82.26
62849;BME280;48941;49.516;8.286;2023-05-02T06:36:53;100911.28;;;12.68;82.57
62849;BME280;48941;49.516;8.286;2023-05-02T06:39:21;100926.59;;;12.77;82.78
62849;BME280;48941;49.516;8.286;2023-05-02T06:41:49;100919.78;;;12.84;81.83
62849;BME280;48941;49.516;8.286;2023-05-02T06:44:17;100913.94;;;12.90;81.60
62849;BME280;48941;49.516;8.286;2023-05-02T06:46:46;100924.84;;;12.99;81.67
62849;BME280;48941;49.516;8.286;2023-05-02T06:49:15;100924.47;;;13.03;80.72
62849;BME280;48941;49.516;8.286;2023-05-02T06:51:42;100930.03;;;13.11;79.42
62849;BME280;48941;49.516;8.286;2023-05-02T06:54:10;100930.03;;;13.11;79.50
62849;BME280;48941;49.516;8.286;2023-05-02T06:56:38;100939.66;;;13.14;79.07
62849;BME280;48941;49.516;8.286;2023-05-02T06:59:06;100936.47;;;13.20;79.47
62849;BME280;48941;49.516;8.286;2023-05-02T07:01:34;100940.44;;;13.26;79.29
62849;BME280;48941;49.516;8.286;2023-05-02T07:04:03;100942.78;;;13.30;78.92
62849;BME280;48941;49.516;8.286;2023-05-02T07:06:31;100941.44;;;13.36;77.99
62849;BME280;48941;49.516;8.286;2023-05-02T07:08:59;100950.50;;;13.45;77.37
62849;BME280;48941;49.516;8.286;2023-05-02T07:11:27;100946.59;;;13.49;77.06
62849;BME280;48941;49.516;8.286;2023-05-02T07:13:55;100948.75;;;13.55;77.00
62849;BME280;48941;49.516;8.286;2023-05-02T07:16:23;100952.47;;;13.64;77.47
62849;BME280;48941;49.516;8.286;2023-05-02T07:18:51;100948.56;;;13.68;77.10
62849;BME280;48941;49.516;8.286;2023-05-02T07:21:20;100953.53;;;13.72;75.93
62849;BME280;48941;49.516;8.286;2023-05-02T07:23:48;100957.53;;;13.78;75.32
62849;BME280;48941;49.516;8.286;2023-05-02T07:26:16;100957.13;;;13.83;74.99
62849;BME280;48941;49.516;8.286;2023-05-02T07:28:44;100956.72;;;13.87;75.20
62849;BME280;48941;49.516;8.286;2023-05-02T07:31:12;100956.22;;;13.93;74.48
62849;BME280;48941;49.516;8.286;2023-05-02T07:33:39;100960.47;;;13.96;74.90
62849;BME280;48941;49.516;8.286;2023-05-02T07:36:08;100963.00;;;13.98;74.48
62849;BME280;48941;49.516;8.286;2023-05-02T07:38:37;100960.72;;;13.93;74.46
62849;BME280;48941;49.516;8.286;2023-05-02T07:41:04;100971.03;;;13.98;74.48
62849;BME280;48941;49.516;8.286;2023-05-02T07:43:32;100972.88;;;13.97;73.60
62849;BME280;48941;49.516;8.286;2023-05-02T07:46:03;100962.88;;;13.99;74.11
62849;BME280;48941;49.516;8.286;2023-05-02T07:48:31;100971.38;;;14.04;74.96
62849;BME280;48941;49.516;8.286;2023-05-02T07:51:05;100970.97;;;14.09;73.79
62849;BME280;48941;49.516;8.286;2023-05-02T07:53:33;100972.53;;;14.11;72.78
62849;BME280;48941;49.516;8.286;2023-05-02T07:56:03;100977.09;;;14.21;73.01
62849;BME280;48941;49.516;8.286;2023-05-02T07:58:31;100975.88;;;14.25;72.91
62849;BME280;48941;49.516;8.286;2023-05-02T08:01:00;100975.31;;;14.31;72.67
62849;BME280;48941;49.516;8.286;2023-05-02T08:03:28;100984.56;;;14.38;72.76
62849;BME280;48941;49.516;8.286;2023-05-02T08:05:56;100983.88;;;14.46;72.36
62849;BME280;48941;49.516;8.286;2023-05-02T08:08:24;100983.47;;;14.50;71.74
62849;BME280;48941;49.516;8.286;2023-05-02T08:10:52;100981.97;;;14.58;71.56
62849;BME280;48941;49.516;8.286;2023-05-02T08:13:21;100983.38;;;14.62;71.05
62849;BME280;48941;49.516;8.286;2023-05-02T08:15:49;100990.63;;;14.71;70.60
62849;BME280;48941;49.516;8.286;2023-05-02T08:18:16;100998.84;;;14.79;69.46
62849;BME280;48941;49.516;8.286;2023-05-02T08:20:44;100990.00;;;14.88;68.68
62849;BME280;48941;49.516;8.286;2023-05-02T08:23:13;100996.13;;;15.00;69.14
62849;BME280;48941;49.516;8.286;2023-05-02T08:25:41;100998.25;;;15.06;67.76
62849;BME280;48941;49.516;8.286;2023-05-02T08:28:09;100996.28;;;15.08;66.35
62849;BME280;48941;49.516;8.286;2023-05-02T08:30:38;101002.94;;;15.14;66.30
62849;BME280;48941;49.516;8.286;2023-05-02T08:33:06;101007.31;;;15.25;66.63
62849;BME280;48941;49.516;8.286;2023-05-02T08:35:33;101007.75;;;15.30;67.07
62849;BME280;48941;49.516;8.286;2023-05-02T08:38:01;101007.34;;;15.34;67.27
62849;BME280;48941;49.516;8.286;2023-05-02T08:40:35;101014.13;;;15.39;65.99
62849;BME280;48941;49.516;8.286;2023-05-02T08:43:10;101009.59;;;15.39;66.03
62849;BME280;48941;49.516;8.286;2023-05-02T08:45:41;101018.34;;;15.41;65.68
62849;BME280;48941;49.516;8.286;2023-05-02T08:48:10;101010.28;;;15.41;65.34
62849;BME280;48941;49.516;8.286;2023-05-02T08:50:39;101014.13;;;15.39;63.21
62849;BME280;48941;49.516;8.286;2023-05-02T08:53:09;101017.06;;;15.36;63.04
62849;BME280;48941;49.516;8.286;2023-05-02T08:55:38;101014.53;;;15.34;62.71
62849;BME280;48941;49.516;8.286;2023-05-02T08:58:07;101018.34;;;15.41;63.71
62849;BME280;48941;49.516;8.286;2023-05-02T09:00:39;101021.75;;;15.43;63.35
62849;BME280;48941;49.516;8.286;2023-05-02T09:03:19;101029.09;;;15.41;63.80
62849;BME280;48941;49.516;8.286;2023-05-02T09:05:52;101031.50;;;15.44;61.18
62849;BME280;48941;49.516;8.286;2023-05-02T09:08:21;101035.88;;;15.45;61.59
62849;BME280;48941;49.516;8.286;2023-05-02T09:10:50;101035.63;;;15.48;60.83
62849;BME280;48941;49.516;8.286;2023-05-02T09:13:28;101032.38;;;15.64;60.43
62849;BME280;48941;49.516;8.286;2023-05-02T09:15:59;101036.19;;;15.71;60.86
62849;BME280;48941;49.516;8.286;2023-05-02T09:18:28;101039.63;;;15.83;59.95
62849;BME280;48941;49.516;8.286;2023-05-02T09:20:58;101042.03;;;15.86;58.76
62849;BME280;48941;49.516;8.286;2023-05-02T09:23:37;101050.66;;;15.90;58.43
62849;BME280;48941;49.516;8.286;2023-05-02T09:26:16;101052.22;;;15.92;58.97
62849;BME280;48941;49.516;8.286;2023-05-02T09:28:45;101058.84;;;15.98;59.30
62849;BME280;48941;49.516;8.286;2023-05-02T09:31:16;101061.09;;;15.93;59.49
62849;BME280;48941;49.516;8.286;2023-05-02T09:34:08;101054.88;;;15.92;58.00
62849;BME280;48941;49.516;8.286;2023-05-02T09:36:41;101056.03;;;15.80;59.11
62849;BME280;48941;49.516;8.286;2023-05-02T09:39:10;101060.69;;;15.78;60.26
62849;BME280;48941;49.516;8.286;2023-05-02T09:41:39;101065.22;;;15.78;59.96
62849;BME280;48941;49.516;8.286;2023-05-02T09:44:09;101067.91;;;15.78;59.25
62849;BME280;48941;49.516;8.286;2023-05-02T09:46:42;101074.25;;;15.77;59.71
62849;BME280;48941;49.516;8.286;2023-05-02T09:49:10;101082.13;;;15.68;60.16
62849;BME280;48941;49.516;8.286;2023-05-02T09:51:40;101077.47;;;15.70;58.92
62849;BME280;48941;49.516;8.286;2023-05-02T09:54:09;101081.41;;;15.66;59.62
62849;BME280;48941;49.516;8.286;2023-05-02T09:56:51;101085.38;;;15.62;60.43
62849;BME280;48941;49.516;8.286;2023-05-02T09:59:19;101087.75;;;15.65;60.94
62849;BME280;48941;49.516;8.286;2023-05-02T10:01:55;101085.63;;;15.59;61.33
62849;BME280;48941;49.516;8.286;2023-05-02T10:04:24;101084.53;;;15.62;61.37
62849;BME280;48941;49.516;8.286;2023-05-02T10:06:53;101090.63;;;15.64;60.77
62849;BME280;48941;49.516;8.286;2023-05-02T10:09:22;101092.28;;;15.65;60.37
62849;BME280;48941;49.516;8.286;2023-05-02T10:11:51;101099.91;;;15.69;61.21
62849;BME280;48941;49.516;8.286;2023-05-02T10:14:21;101096.00;;;15.73;60.26
62849;BME280;48941;49.516;8.286;2023-05-02T10:16:54;101103.66;;;15.78;59.99
62849;BME280;48941;49.516;8.286;2023-05-02T10:19:25;101102.53;;;15.81;60.93
62849;BME280;48941;49.516;8.286;2023-05-02T10:21:55;101097.28;;;15.89;60.54
62849;BME280;48941;49.516;8.286;2023-05-02T10:24:24;101095.63;;;15.98;60.50
62849;BME280;48941;49.516;8.286;2023-05-02T10:26:53;101090.94;;;16.09;58.67
62849;BME280;48941;49.516;8.286;2023-05-02T10:29:21;101098.03;;;16.20;59.08
62849;BME280;48941;49.516;8.286;2023-05-02T10:31:50;101092.34;;;16.33;58.60
62849;BME280;48941;49.516;8.286;2023-05-02T10:34:21;101094.03;;;16.44;58.59
62849;BME280;48941;49.516;8.286;2023-05-02T10:36:49;101085.38;;;16.60;58.24
62849;BME280;48941;49.516;8.286;2023-05-02T10:39:16;101085.56;;;16.96;57.12
62849;BME280;48941;49.516;8.286;2023-05-02T10:41:45;101076.69;;;17.13;56.35
62849;BME280;48941;49.516;8.286;2023-05-02T10:44:13;101082.69;;;17.35;54.99
62849;BME280;48941;49.516;8.286;2023-05-02T10:46:41;101086.81;;;17.75;53.65
62849;BME280;48941;49.516;8.286;2023-05-02T10:49:10;101078.06;;;18.08;52.46
62849;BME280;48941;49.516;8.286;2023-05-02T10:51:41;101079.66;;;18.37;51.90
62849;BME280;48941;49.516;8.286;2023-05-02T10:54:22;101074.50;;;18.70;51.01
62849;BME280;48941;49.516;8.286;2023-05-02T10:57:05;101070.94;;;18.96;49.26
62849;BME280;48941;49.516;8.286;2023-05-02T10:59:35;101063.63;;;19.22;48.99
62849;BME280;48941;49.516;8.286;2023-05-02T11:02:03;101068.41;;;19.37;48.57
62849;BME280;48941;49.516;8.286;2023-05-02T11:04:57;101065.13;;;19.67;47.34
62849;BME280;48941;49.516;8.286;2023-05-02T11:07:28;101074.13;;;20.01;46.82
62849;BME280;48941;49.516;8.286;2023-05-02T11:10:24;101069.41;;;20.19;44.82
62849;BME280;48941;49.516;8.286;2023-05-02T11:12:53;101066.88;;;20.09;44.33
62849;BME280;48941;49.516;8.286;2023-05-02T11:15:54;101063.34;;;20.17;44.80
62849;BME280;48941;49.516;8.286;2023-05-02T11:18:25;101069.56;;;20.26;44.89
62849;BME280;48941;49.516;8.286;2023-05-02T11:21:25;101058.91;;;20.33;43.79
62849;BME280;48941;49.516;8.286;2023-05-02T11:27:38;101072.91;;;20.77;44.00
62849;BME280;48941;49.516;8.286;2023-05-02T11:30:09;101069.13;;;20.95;43.03
62849;BME280;48941;49.516;8.286;2023-05-02T11:33:12;101067.03;;;21.13;42.19
62849;BME280;48941;49.516;8.286;2023-05-02T11:35:43;101067.97;;;21.28;42.10
62849;BME280;48941;49.516;8.286;2023-05-02T11:38:14;101055.06;;;21.39;41.40
62849;BME280;48941;49.516;8.286;2023-05-02T11:40:54;101063.41;;;21.60;41.44
62849;BME280;48941;49.516;8.286;2023-05-02T11:43:25;101059.34;;;21.87;38.99
62849;BME280;48941;49.516;8.286;2023-05-02T11:45:58;101069.34;;;21.87;39.96
62849;BME280;48941;49.516;8.286;2023-05-02T11:48:28;101059.25;;;21.81;39.23
62849;BME280;48941;49.516;8.286;2023-05-02T11:50:58;101059.75;;;21.76;40.29
62849;BME280;48941;49.516;8.286;2023-05-02T11:53:29;101062.03;;;21.64;40.61
62849;BME280;48941;49.516;8.286;2023-05-02T11:55:58;101058.22;;;21.51;40.73
62849;BME280;48941;49.516;8.286;2023-05-02T11:58:29;101060.47;;;21.47;40.56
62849;BME280;48941;49.516;8.286;2023-05-02T12:01:01;101063.50;;;21.04;41.35
62849;BME280;48941;49.516;8.286;2023-05-02T12:03:38;101057.03;;;20.66;42.38
62849;BME280;48941;49.516;8.286;2023-05-02T12:06:09;101054.34;;;20.49;43.51
62849;BME280;48941;49.516;8.286;2023-05-02T12:08:39;101055.22;;;20.25;43.80
62849;BME280;48941;49.516;8.286;2023-05-02T12:11:07;101059.94;;;19.99;44.54
62849;BME280;48941;49.516;8.286;2023-05-02T12:13:43;101059.25;;;19.72;45.28
62849;BME280;48941;49.516;8.286;2023-05-02T12:16:11;101062.41;;;19.59;45.51
62849;BME280;48941;49.516;8.286;2023-05-02T12:18:40;101062.69;;;19.48;45.43
62849;BME280;48941;49.516;8.286;2023-05-02T12:21:08;101060.38;;;19.53;46.09
62849;BME280;48941;49.516;8.286;2023-05-02T12:23:36;101073.66;;;19.46;45.34
62849;BME280;48941;49.516;8.286;2023-05-02T12:26:17;101068.06;;;19.32;45.44
62849;BME280;48941;49.516;8.286;2023-05-02T12:28:50;101074.97;;;19.34;45.13
62849;BME280;48941;49.516;8.286;2023-05-02T12:31:20;101070.66;;;19.49;45.37
62849;BME280;48941;49.516;8.286;2023-05-02T12:33:49;101074.06;;;19.60;44.58
62849;BME280;48941;49.516;8.286;2023-05-02T12:36:20;101069.22;;;19.80;43.76
62849;BME280;48941;49.516;8.286;2023-05-02T12:38:48;101074.13;;;19.93;44.14
62849;BME280;48941;49.516;8.286;2023-05-02T12:41:32;101070.06;;;20.05;43.90
62849;BME280;48941;49.516;8.286;2023-05-02T12:44:02;101068.56;;;20.19;43.44
62849;BME280;48941;49.516;8.286;2023-05-02T12:46:30;101066.84;;;20.34;43.39
62849;BME280;48941;49.516;8.286;2023-05-02T12:49:03;101067.69;;;20.35;42.88
62849;BME280;48941;49.516;8.286;2023-05-02T12:51:32;101069.88;;;20.56;42.87
62849;BME280;48941;49.516;8.286;2023-05-02T12:54:00;101063.09;;;20.76;41.66
62849;BME280;48941;49.516;8.286;2023-05-02T12:56:28;101058.81;;;20.90;40.92
62849;BME280;48941;49.516;8.286;2023-05-02T12:58:58;101064.72;;;20.94;40.48
62849;BME280;48941;49.516;8.286;2023-05-02T13:01:32;101057.63;;;21.32;40.84
62849;BME280;48941;49.516;8.286;2023-05-02T13:04:01;101045.06;;;21.39;39.29
62849;BME280;48941;49.516;8.286;2023-05-02T13:06:29;101056.72;;;21.48;38.70
62849;BME280;48941;49.516;8.286;2023-05-02T13:08:58;101060.84;;;21.67;39.36
62849;BME280;48941;49.516;8.286;2023-05-02T13:11:26;101059.94;;;21.98;39.32